高松 の空港の天気 - METARとTAF

高松空港 ( RJOT / TAK ) - 香川県高松市
飛行場実況気象(Metar)
観測時間07/18 21:24 JST (07/18 12:24 UTC)
風向・風速不定 1m/s
視程7000m
天気現象しゅう雨 もや
少しの雲 雲底高度 150m
全天の4割程度の雲 雲底高度 760m
全天の8割程度の雲 雲底高度 1220m
気温22℃
湿度100%
気圧1012hPa
METARRJOT 181224Z VRB02KT 7000 SHRA BR FEW005 SCT025 BKN040 22/22 Q1012 RMK 1ST005 3CU025 5CU040 A2990
過去の天気等 Google飛行場航空写真 Wunderground天気予報

過去48時間のMETAR

飛行場予報(TAF)
発表時間: 7/18 20:09 JST (7/18 11:09 UTC)
予報対象時間: 18日21時 JST ~ 20日3時 JST
風向・風速南南東 3m/s
視程4000m
天気現象弱いしゅう雨 もや
少しの雲 雲底高度 60m
全天の4割程度の雲 雲底高度 270m
全天の8割程度の雲 雲底高度 610m
18日21時 JST ~ 19日6時 JST に一時的に
視程1500m
天気現象しゅう雨 もや
少しの雲 雲底高度 30m
全天の4割程度の雲 雲底高度 90m
全天の8割程度の雲 雲底高度 150m
19日6時 JST ~ 19日12時 JST に一時的に
視程3000m
天気現象弱いしゅう雨 もや
少しの雲 雲底高度 60m
全天の8割程度の雲 雲底高度 240m
全天の8割程度の雲 雲底高度 460m
19日12時 JST ~ 19日15時 JST に徐々に
視程10km以上
天気現象運行に影響にある天気現象が終了
TAF RJOT 181109Z 1812/1918 15005KT 4000 -SHRA BR FEW002 SCT009 BKN020
TEMPO 1812/1821 1500 SHRA BR FEW001 SCT003 BKN005
TEMPO 1821/1903 3000 -SHRA BR FEW002 BKN008 BKN015
BECMG 1903/1906 9999 NSW
日本の空港のMETAR・TAFへのリンク

RJTT 東京国際空港
RJAA 新東京国際空港
RJBB 関西国際空港
RJOO 大阪空港
RJGG 中部国際空港
RJCC 新千歳空港
RJFF 福岡空港
ROAH 那覇空港


RJEC 旭川空港
RJCH 函館空港
RJCK 釧路空港
RJCM 女満別空港
RJCB 帯広空港
RJSA 青森空港
RJSS 仙台空港
RJSK 秋田空港
RJSF 福島空港
RJAH 茨城空港
RJSN 新潟空港
RJNT 富山空港
RJNK 小松飛行場
RJNS 静岡空港
RJOH 美保飛行場
RJOC 出雲空港
RJOB 岡山空港
RJOA 広島空港
RJOI 岩国飛行場
RJOT 高松空港
RJOM 松山空港
RJOK 高知空港
RJFR 北九州空港
RJFT 熊本空港
RJFU 長崎空港
RJFS 佐賀空港
RJFO 大分空港
RJFM 宮崎空港
RJFK 鹿児島空港
ROIG 石垣島空港
RJTY 横田飛行場
ROTM 普天間飛行場
RODN 嘉手納飛行場